Time;durP1;ratioP1;P1;durP2;ratioP2;P2;SDS_P1;SDS_P2;PMS_P1;PMS_P2;Temp;Humidity;BMP_temperature;BMP_pressure;BME280_temperature;BME280_humidity;BME280_pressure;Samples;Min_cycle;Max_cycle;Signal;HPM_P1;HPM_P2
2022/06/23 00:01:53;;;;;;;10.00;4.78;;;23.30;75.20;;;;;;4990186;28;20061;-86
2022/06/23 00:04:22;;;;;;;12.20;5.03;;;23.20;75.40;;;;;;4990308;28;20018;-86
2022/06/23 00:06:51;;;;;;;9.70;4.32;;;23.20;75.70;;;;;;4978901;28;20138;-86
2022/06/23 00:09:32;;;;;;;10.23;4.63;;;23.10;75.90;;;;;;4990140;28;20060;-87
2022/06/23 00:11:58;;;;;;;;;;;23.10;76.20;;;;;;5066878;28;20022;-86
2022/06/23 00:14:26;;;;;;;8.63;4.32;;;23.10;77.00;;;;;;4990249;28;20311;-86
2022/06/23 00:16:51;;;;;;;10.32;4.40;;;23.00;76.70;;;;;;4990127;28;20396;-86
2022/06/23 00:19:17;;;;;;;12.10;4.60;;;23.00;76.80;;;;;;4990041;28;20030;-86
2022/06/23 00:21:46;;;;;;;8.07;4.53;;;22.90;76.80;;;;;;4990065;28;20482;-86
2022/06/23 00:24:24;;;;;;;12.30;5.03;;;22.90;77.10;;;;;;4976528;28;20109;-86
2022/06/23 00:26:51;;;;;;;9.30;4.65;;;22.90;77.40;;;;;;4990068;28;20033;-86
2022/06/23 00:29:21;;;;;;;11.07;4.63;;;22.80;77.60;;;;;;4990169;28;20370;-86
2022/06/23 00:32:04;;;;;;;12.98;5.10;;;22.80;77.70;;;;;;4993092;28;20474;-86
2022/06/23 00:34:35;;;;;;;10.63;4.53;;;22.80;78.10;;;;;;4990870;28;20390;-86
2022/06/23 00:37:05;;;;;;;12.05;5.00;;;22.70;78.20;;;;;;4977078;28;20495;-86
2022/06/23 00:39:33;;;;;;;9.27;4.60;;;22.70;78.30;;;;;;4990078;28;20207;-87
2022/06/23 00:42:00;;;;;;;10.98;4.93;;;22.60;78.50;;;;;;4991112;28;20031;-86
2022/06/23 00:44:57;;;;;;;8.95;4.72;;;22.60;78.90;;;;;;4990309;28;20036;-85
2022/06/23 00:47:47;;;;;;;9.85;5.07;;;22.60;79.20;;;;;;4970224;28;20034;-86
2022/06/23 00:50:16;;;;;;;11.65;5.45;;;22.50;79.30;;;;;;4990954;28;20095;-85
2022/06/23 00:52:57;;;;;;;11.52;4.65;;;22.50;79.50;;;;;;4975954;28;20023;-85
2022/06/23 00:55:45;;;;;;;15.52;5.20;;;22.50;79.80;;;;;;4991129;28;20071;-85
2022/06/23 00:58:34;;;;;;;13.38;5.38;;;22.40;80.30;;;;;;4998303;28;20026;-85
2022/06/23 01:01:23;;;;;;;9.63;5.10;;;22.40;80.50;;;;;;4979456;28;20042;-85
2022/06/23 01:04:20;;;;;;;9.52;5.00;;;22.40;80.70;;;;;;4994321;28;20039;-85
2022/06/23 01:06:53;;;;;;;11.73;5.32;;;22.30;80.60;;;;;;4982089;28;20053;-85
2022/06/23 01:09:31;;;;;;;7.60;4.95;;;22.30;80.70;;;;;;4995810;28;20030;-85
2022/06/23 01:12:15;;;;;;;10.70;5.18;;;22.30;80.90;;;;;;5007166;28;20083;-85
2022/06/23 01:15:15;;;;;;;12.20;5.00;;;22.20;81.10;;;;;;5008983;28;20118;-86
2022/06/23 01:17:47;;;;;;;9.68;5.22;;;22.20;81.10;;;;;;4990507;28;20027;-86
2022/06/23 01:20:24;;;;;;;12.50;5.45;;;22.10;81.40;;;;;;4995986;28;20075;-86
2022/06/23 01:22:50;;;;;;;13.68;5.47;;;22.10;81.50;;;;;;4989356;28;20035;-85
2022/06/23 01:25:58;;;;;;;10.55;5.57;;;22.00;81.60;;;;;;4989900;28;20022;-85
2022/06/23 01:28:29;;;;;;;10.95;5.40;;;22.00;82.20;;;;;;5032474;28;20042;-86
2022/06/23 01:31:11;;;;;;;11.77;5.50;;;21.90;82.40;;;;;;4996018;28;20084;-85
2022/06/23 01:33:58;;;;;;;9.35;4.95;;;21.90;82.60;;;;;;4995889;28;20109;-86
2022/06/23 01:36:36;;;;;;;9.00;5.28;;;21.90;82.50;;;;;;4997252;28;20029;-86
2022/06/23 01:39:24;;;;;;;14.93;5.80;;;21.80;82.60;;;;;;4995910;28;20023;-85
2022/06/23 01:42:23;;;;;;;11.77;6.13;;;21.80;82.90;;;;;;5005057;28;20034;-87
2022/06/23 01:45:18;;;;;;;12.23;5.30;;;21.70;83.30;;;;;;5021018;28;20045;-86
2022/06/23 01:48:51;;;;;;;10.95;5.50;;;21.70;83.80;;;;;;5020532;28;20020;-86
2022/06/23 01:51:05;;;;;;;11.18;5.30;;;21.70;84.20;;;;;;5020765;28;20060;-86
2022/06/23 01:53:33;;;;;;;10.45;6.00;;;21.60;84.30;;;;;;5004122;28;20041;-85
2022/06/23 01:56:20;;;;;;;10.57;5.80;;;21.60;84.70;;;;;;5020577;28;20007;-85
2022/06/23 01:59:00;;;;;;;9.70;5.55;;;21.60;84.70;;;;;;5019693;28;20041;-86
2022/06/23 02:01:46;;;;;;;12.93;5.38;;;21.50;84.90;;;;;;4987416;28;20624;-85
2022/06/23 02:04:21;;;;;;;11.25;5.88;;;21.50;85.20;;;;;;4997154;28;20030;-86
2022/06/23 02:07:03;;;;;;;10.23;5.47;;;21.50;85.50;;;;;;4992070;28;20498;-86
2022/06/23 02:10:01;;;;;;;10.45;5.53;;;21.40;85.60;;;;;;5007929;28;20117;-85
2022/06/23 02:12:46;;;;;;;10.75;5.55;;;21.40;85.80;;;;;;4990503;28;20031;-85
2022/06/23 02:15:34;;;;;;;11.93;5.88;;;21.30;85.60;;;;;;4996118;28;20018;-86
2022/06/23 02:18:23;;;;;;;17.13;6.15;;;21.30;85.90;;;;;;4992114;28;20075;-85
2022/06/23 02:21:02;;;;;;;10.90;6.85;;;21.20;86.30;;;;;;4993188;28;20037;-85
2022/06/23 02:23:38;;;;;;;9.10;5.30;;;21.20;86.40;;;;;;4973636;28;20030;-85
2022/06/23 02:26:23;;;;;;;13.75;5.95;;;21.20;86.40;;;;;;5057394;28;20027;-85
2022/06/23 02:29:06;;;;;;;11.05;6.53;;;21.20;86.80;;;;;;4993373;28;20368;-86
2022/06/23 02:31:58;;;;;;;12.50;6.07;;;21.10;87.10;;;;;;4977195;28;20061;-85
2022/06/23 02:34:39;;;;;;;14.35;6.57;;;21.10;87.00;;;;;;4984602;28;20031;-86
2022/06/23 02:37:42;;;;;;;11.23;5.63;;;21.00;86.80;;;;;;4991600;28;20018;-85
2022/06/23 02:40:17;;;;;;;13.30;6.43;;;21.00;87.00;;;;;;4991649;28;20022;-85
2022/06/23 02:42:47;;;;;;;11.48;6.15;;;21.00;87.10;;;;;;4991697;28;20084;-86
2022/06/23 02:45:51;;;;;;;10.38;5.50;;;20.90;87.40;;;;;;4988147;28;20023;-85
2022/06/23 02:48:38;;;;;;;13.10;5.90;;;20.90;87.40;;;;;;4984161;28;20125;-85
2022/06/23 02:51:38;;;;;;;9.77;5.72;;;20.80;87.60;;;;;;4973170;28;20106;-85
2022/06/23 02:54:36;;;;;;;11.07;6.43;;;20.80;87.90;;;;;;4975608;28;20010;-85
2022/06/23 02:57:27;;;;;;;12.40;6.50;;;20.80;88.20;;;;;;4992761;28;20470;-86
2022/06/23 03:00:08;;;;;;;9.13;5.75;;;20.70;88.40;;;;;;4986177;28;20482;-86
2022/06/23 03:02:48;;;;;;;9.95;5.43;;;20.70;88.60;;;;;;4991662;28;20072;-86
2022/06/23 03:05:22;;;;;;;10.40;5.82;;;20.60;88.80;;;;;;4991567;28;20382;-85
2022/06/23 03:08:21;;;;;;;16.50;6.30;;;20.60;89.00;;;;;;4990437;28;20097;-85
2022/06/23 03:11:51;;;;;;;9.02;5.75;;;20.60;89.20;;;;;;5001918;28;20034;-86
2022/06/23 03:14:12;;;;;;;9.48;5.95;;;20.60;89.40;;;;;;4991888;28;20022;-83
2022/06/23 03:16:44;;;;;;;10.52;6.55;;;20.50;89.80;;;;;;4984056;28;20023;-83
2022/06/23 03:19:15;;;;;;;9.45;5.90;;;20.50;90.00;;;;;;5001850;28;20027;-85
2022/06/23 03:21:50;;;;;;;10.00;5.70;;;20.40;90.10;;;;;;4991255;28;20138;-84
2022/06/23 03:24:28;;;;;;;11.10;6.00;;;20.40;90.40;;;;;;4991160;28;20027;-85
2022/06/23 03:27:02;;;;;;;10.38;6.28;;;20.40;90.20;;;;;;4992109;28;20371;-84
2022/06/23 03:29:32;;;;;;;9.77;6.50;;;20.40;90.30;;;;;;5076670;28;20079;-84
2022/06/23 03:32:10;;;;;;;9.05;5.72;;;20.30;90.40;;;;;;4991885;28;20027;-84
2022/06/23 03:35:10;;;;;;;13.48;6.55;;;20.30;90.50;;;;;;4989007;28;20031;-85
2022/06/23 03:37:55;;;;;;;11.02;6.32;;;20.30;90.60;;;;;;5014506;28;20516;-84
2022/06/23 03:43:27;;;;;;;9.93;6.25;;;20.20;90.80;;;;;;4991971;28;20049;-84
2022/06/23 03:46:18;;;;;;;10.70;6.00;;;20.20;90.90;;;;;;4984586;28;20035;-84
2022/06/23 03:48:53;;;;;;;8.63;5.43;;;20.20;91.00;;;;;;4986080;28;20046;-84
2022/06/23 03:51:47;;;;;;;8.77;6.03;;;20.20;91.10;;;;;;4991595;28;20030;-84
2022/06/23 03:54:40;;;;;;;12.88;6.35;;;20.10;91.20;;;;;;4990796;28;20018;-84
2022/06/23 03:57:16;;;;;;;14.25;6.75;;;20.10;91.20;;;;;;4991533;28;20045;-84
2022/06/23 04:00:04;;;;;;;12.25;7.03;;;20.10;91.30;;;;;;4982654;28;20037;-84
2022/06/23 04:02:39;;;;;;;11.38;6.32;;;20.10;91.40;;;;;;4987887;28;20026;-84
2022/06/23 04:05:19;;;;;;;10.82;5.68;;;20.00;91.40;;;;;;4990406;28;20489;-85
2022/06/23 04:08:01;;;;;;;;;;;20.00;91.50;;;;;;4991604;28;20054;-84
2022/06/23 04:10:33;;;;;;;9.48;5.85;;;20.00;91.70;;;;;;4991634;28;19920;-84
2022/06/23 04:13:20;;;;;;;13.18;6.53;;;20.00;91.50;;;;;;4990108;28;20023;-85
2022/06/23 04:15:49;;;;;;;8.55;5.40;;;20.00;91.60;;;;;;4991545;28;20031;-85
2022/06/23 04:18:25;;;;;;;9.70;5.80;;;20.00;91.60;;;;;;4971009;28;20027;-84
2022/06/23 04:20:55;;;;;;;9.48;5.65;;;19.90;91.70;;;;;;5000790;28;20034;-86
2022/06/23 04:23:28;;;;;;;7.18;5.10;;;19.90;91.80;;;;;;4990493;28;20102;-84
2022/06/23 04:25:59;;;;;;;10.98;5.72;;;19.90;91.90;;;;;;4990103;28;20462;-85
2022/06/23 04:28:34;;;;;;;9.82;6.32;;;19.90;92.00;;;;;;4993323;28;20018;-85
2022/06/23 04:31:04;;;;;;;16.80;6.40;;;19.90;92.00;;;;;;5006557;28;20106;-84
2022/06/23 04:33:37;;;;;;;11.67;6.00;;;19.90;92.10;;;;;;4978146;28;20023;-84
2022/06/23 04:36:03;;;;;;;12.27;6.30;;;19.90;92.20;;;;;;4981600;28;20035;-85
2022/06/23 04:38:55;;;;;;;11.10;5.80;;;19.90;92.30;;;;;;5001793;28;20072;-84
2022/06/23 04:41:27;;;;;;;12.88;6.15;;;19.90;92.30;;;;;;4979055;28;20042;-84
2022/06/23 04:43:58;;;;;;;11.13;5.95;;;19.90;92.40;;;;;;5072944;28;20105;-85
2022/06/23 04:46:30;;;;;;;10.15;5.93;;;19.80;92.50;;;;;;4991244;28;20488;-84
2022/06/23 04:49:27;;;;;;;11.93;6.07;;;19.80;92.60;;;;;;4989620;28;20022;-85
2022/06/23 04:52:23;;;;;;;14.95;6.65;;;19.80;92.70;;;;;;5006239;28;20086;-84
2022/06/23 04:54:57;;;;;;;14.55;6.05;;;19.80;92.80;;;;;;4996425;28;20142;-84
2022/06/23 04:57:29;;;;;;;10.85;6.30;;;19.80;92.80;;;;;;5006175;28;20018;-85
2022/06/23 04:59:59;;;;;;;10.02;6.25;;;19.80;92.90;;;;;;4991060;28;20034;-84
2022/06/23 05:02:49;;;;;;;8.30;5.57;;;19.80;92.90;;;;;;4989721;28;20026;-84
2022/06/23 05:05:35;;;;;;;12.93;6.27;;;19.80;92.90;;;;;;4991139;28;20019;-84
2022/06/23 05:08:07;;;;;;;9.48;6.47;;;19.80;93.00;;;;;;4976456;28;20406;-84
2022/06/23 05:10:36;;;;;;;11.40;6.20;;;19.80;93.00;;;;;;4986832;28;20076;-84
2022/06/23 05:13:06;;;;;;;8.85;5.38;;;19.80;93.20;;;;;;4998943;28;20032;-85
2022/06/23 05:15:43;;;;;;;10.43;5.88;;;19.80;93.30;;;;;;4987943;28;20030;-84
2022/06/23 05:18:16;;;;;;;12.00;6.53;;;19.80;93.40;;;;;;4989404;28;20022;-84
2022/06/23 05:21:04;;;;;;;8.35;5.70;;;19.80;93.40;;;;;;5009181;28;20035;-84
2022/06/23 05:23:44;;;;;;;11.70;5.50;;;19.80;93.40;;;;;;4986262;28;20018;-85
2022/06/23 05:26:14;;;;;;;8.18;5.00;;;19.90;93.50;;;;;;5003949;28;20052;-85
2022/06/23 05:28:42;;;;;;;11.70;5.68;;;19.80;93.40;;;;;;5012482;28;20074;-84
2022/06/23 05:31:16;;;;;;;10.35;6.00;;;19.80;93.40;;;;;;4990358;28;21089;-86
2022/06/23 05:33:46;;;;;;;9.05;5.82;;;19.90;93.50;;;;;;5008263;28;20084;-83
2022/06/23 05:36:25;;;;;;;10.20;5.88;;;19.90;93.40;;;;;;5028700;28;20509;-85
2022/06/23 05:39:18;;;;;;;10.48;5.82;;;19.90;93.50;;;;;;5009598;28;20230;-86
2022/06/23 05:41:46;;;;;;;8.07;5.07;;;19.90;93.60;;;;;;5000946;28;20064;-84
2022/06/23 05:44:42;;;;;;;9.75;5.47;;;19.90;93.70;;;;;;5012788;28;20474;-84
2022/06/23 05:47:13;;;;;;;7.95;5.38;;;19.90;93.70;;;;;;4989329;28;20018;-84
2022/06/23 05:49:46;;;;;;;11.68;6.15;;;19.90;93.70;;;;;;4994912;28;20358;-83
2022/06/23 05:52:27;;;;;;;8.40;5.80;;;19.90;93.70;;;;;;4988996;28;20049;-85
2022/06/23 05:54:58;;;;;;;;;;;19.90;93.70;;;;;;4994185;28;20034;-85
2022/06/23 05:57:38;;;;;;;10.13;5.65;;;20.00;93.80;;;;;;4992386;28;20346;-86
2022/06/23 06:00:14;;;;;;;10.30;5.50;;;20.00;93.70;;;;;;4992893;28;20033;-85
2022/06/23 06:02:48;;;;;;;8.82;5.47;;;20.00;93.70;;;;;;5063589;22;20409;-83
2022/06/23 06:05:42;;;;;;;9.40;5.47;;;20.00;93.70;;;;;;5097548;28;20012;-83
2022/06/23 06:08:24;;;;;;;8.98;5.70;;;20.00;93.70;;;;;;5095453;28;20039;-83
2022/06/23 06:10:51;;;;;;;8.93;5.35;;;20.10;93.80;;;;;;5082816;28;20024;-83
2022/06/23 06:13:28;;;;;;;8.65;5.82;;;20.10;93.80;;;;;;5076159;28;20119;-83
2022/06/23 06:15:56;;;;;;;10.68;5.97;;;20.10;93.90;;;;;;5076962;28;20059;-83
2022/06/23 06:18:41;;;;;;;7.63;5.53;;;20.10;94.00;;;;;;5074932;28;20127;-83
2022/06/23 06:21:11;;;;;;;12.30;5.40;;;20.20;94.10;;;;;;5075433;28;20017;-83
2022/06/23 06:23:46;;;;;;;10.32;5.30;;;20.20;94.20;;;;;;5080534;28;20024;-82
2022/06/23 06:26:17;;;;;;;10.05;5.65;;;20.30;94.30;;;;;;5089415;28;20029;-82
2022/06/23 06:32:26;;;;;;;9.43;5.32;;;20.40;94.50;;;;;;5076488;28;20104;-82
2022/06/23 06:34:58;;;;;;;7.72;4.90;;;20.40;94.50;;;;;;5074710;28;20058;-81
2022/06/23 06:37:28;;;;;;;8.77;5.18;;;20.40;94.60;;;;;;5076194;28;20100;-82
2022/06/23 06:39:57;;;;;;;8.80;4.75;;;20.50;94.50;;;;;;5078239;28;20021;-82
2022/06/23 06:42:27;;;;;;;7.75;4.88;;;20.50;94.40;;;;;;5094868;28;20027;-83
2022/06/23 06:44:56;;;;;;;13.00;5.13;;;20.60;94.40;;;;;;5095929;28;20389;-83
2022/06/23 06:47:34;;;;;;;9.25;5.50;;;20.60;94.40;;;;;;5094710;28;20020;-82
2022/06/23 06:50:05;;;;;;;9.45;4.93;;;20.70;94.30;;;;;;5096006;28;20099;-82
2022/06/23 06:52:32;;;;;;;8.43;5.07;;;20.70;94.00;;;;;;5095357;28;20089;-83
2022/06/23 06:55:08;;;;;;;8.50;5.25;;;20.80;94.10;;;;;;5095981;28;20016;-82
2022/06/23 06:57:47;;;;;;;9.45;5.30;;;20.80;94.00;;;;;;5094794;28;20077;-82
2022/06/23 07:00:21;;;;;;;8.52;5.38;;;20.90;94.00;;;;;;5094144;28;20031;-82
2022/06/23 07:02:59;;;;;;;9.98;5.68;;;20.90;93.80;;;;;;5094423;28;20447;-82
2022/06/23 07:05:34;;;;;;;9.75;5.40;;;21.00;93.40;;;;;;5095631;28;20012;-82
2022/06/23 07:08:29;;;;;;;10.20;6.10;;;21.10;93.30;;;;;;5094244;28;20484;-82
2022/06/23 07:11:09;;;;;;;10.55;5.30;;;21.10;93.10;;;;;;5091217;28;20032;-82
2022/06/23 07:13:48;;;;;;;9.77;5.80;;;21.20;93.00;;;;;;5094288;28;20030;-82
2022/06/23 07:16:24;;;;;;;9.40;5.68;;;21.30;92.90;;;;;;5094145;28;20114;-82
2022/06/23 07:19:05;;;;;;;8.65;5.45;;;21.40;93.00;;;;;;5095261;28;20429;-82
2022/06/23 07:21:41;;;;;;;10.20;5.13;;;21.40;92.90;;;;;;5094009;28;20028;-82
2022/06/23 07:24:13;;;;;;;8.98;5.65;;;21.50;92.80;;;;;;5101379;28;20016;-82
2022/06/23 07:26:47;;;;;;;9.80;5.43;;;21.60;92.80;;;;;;5095202;28;20035;-82
2022/06/23 07:29:35;;;;;;;8.20;5.47;;;21.70;92.70;;;;;;5095264;28;20441;-82
2022/06/23 07:32:31;;;;;;;8.13;5.30;;;21.80;92.50;;;;;;5101049;28;20023;-83
2022/06/23 07:35:06;;;;;;;9.38;4.65;;;21.90;92.40;;;;;;5114289;28;20026;-82
2022/06/23 07:37:41;;;;;;;7.63;4.57;;;22.00;92.40;;;;;;5114241;28;20460;-83
2022/06/23 07:40:08;;;;;;;10.32;4.88;;;22.00;92.20;;;;;;5097218;28;20379;-82
2022/06/23 07:42:56;;;;;;;9.02;4.53;;;22.10;91.90;;;;;;5076863;28;20044;-82
2022/06/23 07:45:28;;;;;;;7.18;4.40;;;22.20;91.50;;;;;;5093751;28;20476;-82
2022/06/23 07:47:55;;;;;;;8.85;4.13;;;22.30;91.10;;;;;;5094991;28;20090;-83
2022/06/23 07:50:20;;;;;;;8.73;4.25;;;22.40;90.70;;;;;;5077200;28;20032;-83
2022/06/23 07:52:48;;;;;;;7.78;4.68;;;22.50;90.50;;;;;;5093450;28;20496;-83
2022/06/23 07:55:33;;;;;;;8.45;4.13;;;22.60;90.20;;;;;;5093569;28;20028;-83
2022/06/23 07:57:58;;;;;;;7.07;4.30;;;22.70;90.20;;;;;;5093268;28;20045;-83
2022/06/23 08:00:25;;;;;;;9.25;4.20;;;22.80;90.30;;;;;;5093021;28;20028;-82
2022/06/23 08:03:03;;;;;;;8.68;3.78;;;22.90;90.00;;;;;;5093104;28;20048;-83
2022/06/23 08:05:44;;;;;;;8.27;4.22;;;23.00;90.00;;;;;;5093203;28;20020;-83
2022/06/23 08:08:18;;;;;;;5.07;3.08;;;23.10;90.00;;;;;;5093201;28;20031;-83
2022/06/23 08:10:44;;;;;;;6.43;3.55;;;23.20;90.20;;;;;;5092491;28;20035;-83
2022/06/23 08:13:21;;;;;;;8.38;4.03;;;23.30;90.20;;;;;;5076135;28;20114;-81
2022/06/23 08:19:31;;;;;;;6.25;3.40;;;23.50;89.70;;;;;;5079231;28;20077;-83
2022/06/23 08:22:00;;;;;;;6.40;3.55;;;23.60;88.70;;;;;;5074054;28;20033;-83
2022/06/23 08:24:26;;;;;;;7.00;4.05;;;23.70;88.80;;;;;;5074023;28;20096;-82
2022/06/23 08:27:09;;;;;;;9.50;4.72;;;23.80;89.00;;;;;;5056085;28;20033;-83
2022/06/23 08:29:45;;;;;;;7.25;4.40;;;23.90;88.60;;;;;;5072420;28;20025;-83
2022/06/23 08:32:12;;;;;;;9.35;4.53;;;24.00;87.40;;;;;;5072493;28;20036;-83
2022/06/23 08:34:43;;;;;;;7.20;3.95;;;24.10;87.40;;;;;;5055851;28;20028;-83
2022/06/23 08:37:22;;;;;;;26.42;5.72;;;24.20;87.70;;;;;;5072736;28;20054;-82
2022/06/23 08:39:55;;;;;;;8.18;3.90;;;24.20;88.00;;;;;;5073092;28;20465;-83
2022/06/23 08:42:52;;;;;;;8.73;4.13;;;24.30;88.70;;;;;;5072874;28;20028;-83
2022/06/23 08:45:26;;;;;;;9.68;4.50;;;24.40;88.20;;;;;;5072893;28;20086;-80
2022/06/23 08:48:12;;;;;;;6.97;3.85;;;24.50;87.70;;;;;;5087133;28;20024;-83
2022/06/23 08:51:12;;;;;;;6.50;3.78;;;24.60;87.30;;;;;;5092683;28;20066;-83
2022/06/23 08:54:04;;;;;;;9.70;3.88;;;24.70;87.80;;;;;;5058254;28;20419;-83
2022/06/23 08:56:39;;;;;;;7.35;3.85;;;24.80;87.70;;;;;;5094062;28;20489;-83
2022/06/23 08:59:27;;;;;;;6.90;4.18;;;24.90;87.60;;;;;;5093238;28;20464;-83
2022/06/23 09:02:07;;;;;;;9.80;5.05;;;24.90;87.10;;;;;;5078320;28;20028;-82
2022/06/23 09:05:17;;;;;;;9.00;5.32;;;25.00;86.80;;;;;;5109444;28;20396;-82
2022/06/23 09:07:47;;;;;;;11.05;5.55;;;25.10;85.70;;;;;;5083382;28;20020;-82
2022/06/23 09:10:39;;;;;;;9.93;5.53;;;25.20;84.70;;;;;;5091851;28;20028;-82
2022/06/23 09:13:29;;;;;;;7.25;4.40;;;25.30;84.40;;;;;;5106006;28;20036;-82
2022/06/23 09:16:05;;;;;;;8.60;5.00;;;25.30;84.20;;;;;;5092858;28;20094;-82
2022/06/23 09:18:58;;;;;;;7.22;4.05;;;25.50;84.50;;;;;;5093859;28;20108;-82
2022/06/23 09:21:56;;;;;;;9.05;4.50;;;25.50;84.60;;;;;;5093736;28;20039;-82
2022/06/23 09:24:56;;;;;;;7.55;4.00;;;25.60;85.10;;;;;;5096240;28;20032;-82
2022/06/23 09:27:50;;;;;;;13.20;4.65;;;25.70;84.90;;;;;;5097566;28;20050;-82
2022/06/23 09:30:45;;;;;;;10.15;4.30;;;25.70;84.40;;;;;;5097303;28;20016;-80
2022/06/23 09:33:30;;;;;;;8.13;4.30;;;25.80;83.80;;;;;;5085497;28;20085;-81
2022/06/23 09:36:20;;;;;;;7.57;4.25;;;25.90;83.40;;;;;;5095769;28;20020;-82
2022/06/23 09:39:04;;;;;;;9.65;4.18;;;26.00;83.40;;;;;;5112791;28;20115;-82
2022/06/23 09:41:58;;;;;;;7.35;4.13;;;26.10;83.50;;;;;;5082643;28;20023;-82
2022/06/23 09:44:29;;;;;;;8.52;5.15;;;26.20;83.40;;;;;;5098565;28;20021;-84
2022/06/23 09:47:23;;;;;;;6.97;3.67;;;26.30;82.80;;;;;;5100938;28;20020;-83
2022/06/23 09:50:05;;;;;;;8.95;4.05;;;26.30;82.70;;;;;;5096334;28;20024;-85
2022/06/23 09:52:49;;;;;;;10.82;4.40;;;26.40;82.60;;;;;;5098210;28;20028;-85
2022/06/23 09:55:18;;;;;;;9.05;3.70;;;26.50;82.30;;;;;;5116448;28;20095;-86
2022/06/23 09:58:15;;;;;;;8.02;3.67;;;26.60;82.20;;;;;;5101343;28;20077;-86
2022/06/23 10:01:11;;;;;;;7.57;3.58;;;26.70;82.00;;;;;;5084751;28;20024;-87
2022/06/23 10:04:13;;;;;;;7.68;3.70;;;26.70;81.50;;;;;;5097986;28;20059;-86
2022/06/23 10:07:21;;;;;;;8.18;3.95;;;26.80;81.10;;;;;;5106920;28;20119;-85
2022/06/23 10:09:56;;;;;;;12.27;4.47;;;26.90;80.70;;;;;;5065611;28;20053;-84
2022/06/23 10:12:30;;;;;;;7.35;3.72;;;27.00;80.10;;;;;;5096970;28;20384;-85
2022/06/23 10:15:33;;;;;;;7.95;3.40;;;27.10;79.90;;;;;;5093546;28;20102;-87
2022/06/23 10:18:02;;;;;;;7.80;3.25;;;27.10;80.60;;;;;;5092379;28;20016;-87
2022/06/23 10:20:55;;;;;;;6.90;3.08;;;27.20;80.50;;;;;;5087518;28;20115;-87
2022/06/23 10:23:36;;;;;;;8.20;3.05;;;27.30;80.40;;;;;;5104893;28;20030;-87
2022/06/23 10:26:22;;;;;;;11.18;3.40;;;27.40;80.10;;;;;;5096436;28;20107;-86
2022/06/23 10:29:32;;;;;;;10.68;3.60;;;27.50;79.60;;;;;;5097872;28;20036;-87
2022/06/23 10:32:39;;;;;;;8.70;3.23;;;27.50;79.20;;;;;;5102572;28;20031;-85
2022/06/23 10:35:26;;;;;;;8.70;3.60;;;27.60;78.00;;;;;;5085561;28;20266;-82
2022/06/23 10:38:01;;;;;;;9.70;3.40;;;27.70;76.50;;;;;;5099727;28;20074;-83
2022/06/23 10:41:02;;;;;;;9.63;3.10;;;27.80;76.70;;;;;;5097181;28;20036;-83
2022/06/23 10:43:58;;;;;;;9.68;3.60;;;27.90;76.00;;;;;;5096053;28;20115;-82
2022/06/23 10:46:29;;;;;;;10.63;3.17;;;28.00;75.10;;;;;;5096084;28;20026;-85
2022/06/23 10:49:18;;;;;;;6.43;3.25;;;28.10;74.50;;;;;;5096162;28;20020;-85
2022/06/23 10:52:04;;;;;;;8.07;3.42;;;28.10;73.60;;;;;;5075325;28;20037;-84
2022/06/23 10:55:01;;;;;;;5.38;2.75;;;28.20;73.40;;;;;;5075931;28;20020;-85
2022/06/23 10:58:07;;;;;;;10.07;3.38;;;28.30;73.80;;;;;;5075360;28;20028;-83
2022/06/23 11:00:54;;;;;;;8.13;3.20;;;28.40;73.60;;;;;;5077817;28;20020;-83
2022/06/23 11:03:48;;;;;;;8.50;3.05;;;28.50;74.00;;;;;;5085192;28;20049;-83
2022/06/23 11:06:45;;;;;;;8.05;2.95;;;28.60;73.40;;;;;;5090750;28;20024;-83
2022/06/23 11:09:18;;;;;;;9.00;3.33;;;28.70;73.30;;;;;;5091172;28;20024;-83
2022/06/23 11:12:02;;;;;;;9.02;3.60;;;28.80;73.10;;;;;;5095873;28;20050;-82
2022/06/23 11:14:52;;;;;;;9.43;3.38;;;28.80;72.80;;;;;;5111414;28;20028;-81
2022/06/23 11:17:39;;;;;;;12.40;4.05;;;28.90;72.40;;;;;;5098494;28;20020;-82
2022/06/23 11:20:33;;;;;;;10.10;3.83;;;29.00;71.60;;;;;;5126417;22;20091;-85
2022/06/23 11:23:19;;;;;;;8.30;3.47;;;29.10;70.70;;;;;;5072887;28;20039;-87
2022/06/23 11:25:47;;;;;;;11.43;3.22;;;29.10;70.50;;;;;;5051826;28;20047;-84
2022/06/23 11:28:18;;;;;;;12.07;4.32;;;29.20;70.80;;;;;;5074811;28;20093;-84
2022/06/23 11:31:12;;;;;;;12.80;3.55;;;29.20;70.30;;;;;;5073816;28;20032;-85
2022/06/23 11:34:03;;;;;;;8.43;3.25;;;29.30;70.00;;;;;;5073824;28;20067;-83
2022/06/23 11:36:45;;;;;;;10.52;3.70;;;29.40;69.70;;;;;;5081552;28;20012;-83
2022/06/23 11:39:19;;;;;;;10.32;3.95;;;29.40;70.40;;;;;;5075184;28;20028;-83
2022/06/23 11:42:09;;;;;;;10.70;3.85;;;29.50;70.00;;;;;;5061253;28;20043;-84
2022/06/23 11:44:38;;;;;;;9.95;3.70;;;29.60;70.40;;;;;;5059323;28;20028;-83
2022/06/23 11:47:25;;;;;;;11.63;4.05;;;29.70;69.80;;;;;;5073047;28;20066;-83
2022/06/23 11:50:10;;;;;;;8.68;3.60;;;29.70;68.80;;;;;;5071925;28;20464;-84
2022/06/23 11:53:00;;;;;;;8.25;3.45;;;29.80;68.20;;;;;;5071854;28;20025;-83
2022/06/23 11:55:48;;;;;;;11.13;4.65;;;29.80;68.20;;;;;;5071973;28;20016;-85
2022/06/23 11:58:32;;;;;;;9.32;3.67;;;29.80;67.20;;;;;;5072025;28;20401;-84
2022/06/23 12:01:20;;;;;;;9.02;3.92;;;29.90;67.30;;;;;;5072960;28;20051;-84
2022/06/23 12:04:04;;;;;;;11.40;3.83;;;30.00;67.40;;;;;;5072778;28;20033;-86
2022/06/23 12:06:54;;;;;;;9.00;3.72;;;30.00;66.60;;;;;;5059577;28;20032;-84
2022/06/23 12:09:47;;;;;;;9.85;3.97;;;30.10;66.70;;;;;;5062895;28;20475;-84
2022/06/23 12:12:13;;;;;;;7.28;3.28;;;30.20;66.10;;;;;;5081267;28;20103;-84
2022/06/23 12:14:39;;;;;;;10.57;3.50;;;30.20;66.40;;;;;;5088434;28;20159;-85
2022/06/23 12:17:28;;;;;;;10.40;3.38;;;30.30;67.10;;;;;;5068601;28;20020;-84
2022/06/23 12:20:16;;;;;;;10.20;3.42;;;30.40;66.20;;;;;;5060607;28;20115;-85
2022/06/23 12:22:57;;;;;;;9.18;3.13;;;30.50;63.20;;;;;;5088401;28;20154;-84
2022/06/23 12:25:39;;;;;;;12.18;3.13;;;30.50;63.90;;;;;;5071525;28;20031;-84
2022/06/23 12:28:20;;;;;;;8.95;3.42;;;30.60;64.30;;;;;;5058109;28;20094;-84
2022/06/23 12:31:06;;;;;;;10.93;3.15;;;30.70;64.40;;;;;;5071590;28;20025;-85
2022/06/23 12:33:44;;;;;;;7.90;3.22;;;30.80;63.70;;;;;;5070918;28;20025;-84
2022/06/23 12:36:33;;;;;;;8.57;3.15;;;30.90;63.30;;;;;;5074230;28;20017;-85
2022/06/23 12:39:13;;;;;;;9.87;3.20;;;30.90;63.60;;;;;;5087448;28;20129;-84
2022/06/23 12:41:48;;;;;;;14.25;3.50;;;31.00;63.60;;;;;;5092138;28;20017;-85
2022/06/23 12:44:27;;;;;;;10.52;3.70;;;31.10;63.00;;;;;;5086685;28;20023;-85
2022/06/23 12:47:18;;;;;;;8.13;2.65;;;31.20;62.60;;;;;;5088237;28;20070;-84
2022/06/23 12:50:05;;;;;;;9.20;3.10;;;31.20;62.00;;;;;;5071930;28;20025;-90
2022/06/23 12:52:45;;;;;;;11.25;2.75;;;31.30;60.20;;;;;;5053706;28;20021;-83
2022/06/23 12:55:13;;;;;;;13.73;3.80;;;31.40;60.70;;;;;;5081748;28;20008;-83
2022/06/23 12:58:03;;;;;;;9.38;2.88;;;31.40;60.60;;;;;;5096447;28;20025;-84
2022/06/23 13:00:52;;;;;;;9.15;2.97;;;31.50;60.90;;;;;;5100854;28;20032;-83
2022/06/23 13:03:24;;;;;;;8.05;2.92;;;31.50;61.40;;;;;;5113397;28;20012;-84
2022/06/23 13:06:08;;;;;;;14.30;3.33;;;31.60;61.50;;;;;;5096216;28;20017;-87
2022/06/23 13:09:05;;;;;;;11.20;3.28;;;31.60;61.40;;;;;;5112877;28;20019;-83
2022/06/23 13:11:50;;;;;;;10.85;3.17;;;31.70;61.00;;;;;;5125647;28;20028;-86
2022/06/23 13:14:34;;;;;;;8.00;2.70;;;31.70;60.20;;;;;;5069587;28;20082;-85
2022/06/23 13:17:21;;;;;;;10.75;3.63;;;31.80;60.70;;;;;;5085285;28;20019;-83
2022/06/23 13:20:00;;;;;;;11.73;3.65;;;31.90;61.20;;;;;;5082861;28;20232;-84
2022/06/23 13:22:26;;;;;;;9.48;3.42;;;31.90;61.60;;;;;;5073603;28;20025;-83
2022/06/23 13:24:54;;;;;;;17.23;3.30;;;32.00;61.80;;;;;;5067831;28;20401;-87
2022/06/23 13:27:23;;;;;;;10.02;3.10;;;32.10;60.30;;;;;;5068589;28;20021;-85
2022/06/23 13:30:06;;;;;;;12.52;4.63;;;32.10;59.10;;;;;;5088808;28;20060;-85
2022/06/23 13:32:35;;;;;;;15.50;2.97;;;32.20;59.50;;;;;;5070770;28;20020;-84
2022/06/23 13:35:22;;;;;;;11.32;3.72;;;32.20;59.10;;;;;;5070665;28;20024;-84
2022/06/23 13:38:16;;;;;;;11.05;3.20;;;32.20;57.90;;;;;;5071067;28;20029;-85
2022/06/23 13:41:01;;;;;;;9.40;2.88;;;32.20;58.00;;;;;;5046384;28;20132;-85
2022/06/23 13:43:35;;;;;;;9.63;3.22;;;32.30;58.20;;;;;;5061337;28;20024;-85
2022/06/23 13:46:13;;;;;;;12.10;3.03;;;32.30;58.30;;;;;;5068898;28;20025;-84
2022/06/23 13:48:52;;;;;;;7.45;3.08;;;32.30;58.00;;;;;;5070862;28;20123;-86
2022/06/23 13:51:31;;;;;;;12.23;3.35;;;32.30;56.10;;;;;;5069570;28;20029;-89
2022/06/23 13:54:05;;;;;;;9.98;3.08;;;32.30;55.90;;;;;;5074140;28;20020;-90
2022/06/23 13:56:39;;;;;;;8.15;2.72;;;32.40;55.70;;;;;;5068519;28;20017;-93
2022/06/23 13:59:12;;;;;;;8.65;3.03;;;32.40;56.40;;;;;;5072855;28;20117;-94
2022/06/23 14:02:14;;;;;;;7.85;2.90;;;32.40;55.60;;;;;;5065174;28;20033;-84
2022/06/23 14:05:17;;;;;;;5.05;2.50;;;32.50;56.10;;;;;;5059674;28;20090;-85